Time;durP1;ratioP1;P1;durP2;ratioP2;P2;SDS_P1;SDS_P2;PMS_P1;PMS_P2;Temp;Humidity;BMP_temperature;BMP_pressure;BME280_temperature;BME280_humidity;BME280_pressure;Samples;Min_cycle;Max_cycle;Signal;HPM_P1;HPM_P2
2022/01/30 00:01:24;;;;;;;24.73;4.40;;;10.60;64.80;;;;;;6266248;22;20428;-53
2022/01/30 00:03:50;;;;;;;35.17;4.95;;;10.60;64.70;;;;;;6265886;22;19999;-51
2022/01/30 00:06:16;;;;;;;22.83;4.90;;;10.60;63.80;;;;;;6266186;22;20000;-51
2022/01/30 00:08:42;;;;;;;35.38;5.35;;;10.60;63.40;;;;;;6265614;22;20011;-54
2022/01/30 00:11:15;;;;;;;40.67;5.63;;;10.60;63.00;;;;;;6267043;22;20322;-51
2022/01/30 00:13:41;;;;;;;32.00;5.82;;;10.60;62.10;;;;;;6263213;22;20000;-52
2022/01/30 00:16:10;;;;;;;35.15;5.20;;;10.60;61.90;;;;;;6265245;22;20007;-55
2022/01/30 00:21:28;;;;;;;29.23;4.55;;;10.50;62.20;;;;;;6275697;22;20008;-52
2022/01/30 00:24:06;;;;;;;32.95;5.35;;;10.50;60.30;;;;;;6236715;22;20004;-53
2022/01/30 00:26:35;;;;;;;33.17;5.20;;;10.50;61.30;;;;;;6237610;22;20479;-54
2022/01/30 00:29:03;;;;;;;29.55;5.43;;;10.50;61.30;;;;;;6236093;22;20003;-56
2022/01/30 00:31:31;;;;;;;38.88;5.05;;;10.50;61.20;;;;;;6265836;22;19998;-58
2022/01/30 00:33:57;;;;;;;33.17;4.88;;;10.40;60.60;;;;;;6238278;22;20002;-56
2022/01/30 00:36:23;;;;;;;36.03;6.60;;;10.40;60.60;;;;;;6266358;22;20039;-58
2022/01/30 00:38:49;;;;;;;38.13;5.43;;;10.50;60.70;;;;;;6265978;22;20011;-56
2022/01/30 00:41:17;;;;;;;29.35;4.45;;;10.40;60.60;;;;;;6239175;22;20014;-55
2022/01/30 00:43:43;;;;;;;42.88;6.43;;;10.40;60.80;;;;;;6262190;22;20003;-53
2022/01/30 00:46:09;;;;;;;40.95;7.57;;;10.40;59.60;;;;;;6265671;22;20320;-52
2022/01/30 00:48:35;;;;;;;40.03;5.72;;;10.40;59.10;;;;;;6265893;22;20004;-54
2022/01/30 00:51:02;;;;;;;34.50;5.28;;;10.30;59.30;;;;;;6265731;22;20178;-53
2022/01/30 00:53:28;;;;;;;30.17;4.90;;;10.30;59.50;;;;;;6265334;22;19999;-51
2022/01/30 00:55:54;;;;;;;24.88;4.80;;;10.30;59.10;;;;;;6266107;22;20011;-51
2022/01/30 00:58:20;;;;;;;32.78;5.82;;;10.30;59.10;;;;;;6264061;22;20059;-51
2022/01/30 01:00:46;;;;;;;40.08;5.82;;;10.20;59.00;;;;;;6265015;22;20003;-54
2022/01/30 01:03:13;;;;;;;29.25;5.68;;;10.20;59.10;;;;;;6264362;22;20004;-55
2022/01/30 01:05:39;;;;;;;31.05;4.75;;;10.20;59.20;;;;;;6262932;22;20000;-52
2022/01/30 01:08:25;;;;;;;36.70;5.72;;;10.10;59.00;;;;;;6265834;22;19996;-51
2022/01/30 01:10:59;;;;;;;41.40;5.47;;;10.10;58.70;;;;;;6264954;22;20004;-55
2022/01/30 01:24:04;;;;;;;27.98;4.82;;;10.00;58.40;;;;;;6263846;22;20340;-56
2022/01/30 01:26:31;;;;;;;23.90;5.00;;;9.90;58.40;;;;;;6265108;22;20008;-56
2022/01/30 01:28:58;;;;;;;25.17;5.28;;;9.90;58.50;;;;;;6263580;22;20003;-54
2022/01/30 01:31:24;;;;;;;30.10;5.22;;;9.90;58.30;;;;;;6265905;22;20011;-58
2022/01/30 01:34:22;;;;;;;34.70;5.80;;;9.80;58.30;;;;;;6263067;22;20348;-47
2022/01/30 01:36:48;;;;;;;28.20;4.30;;;9.80;58.30;;;;;;6275862;22;20328;-57
2022/01/30 01:39:14;;;;;;;25.23;4.57;;;9.80;58.30;;;;;;6265694;22;20012;-56
2022/01/30 01:41:40;;;;;;;28.95;4.47;;;9.80;58.30;;;;;;6266339;22;20014;-56
2022/01/30 01:44:39;;;;;;;31.42;4.90;;;9.70;58.20;;;;;;6263894;22;19991;-53
2022/01/30 01:47:07;;;;;;;30.50;4.32;;;9.70;57.90;;;;;;6276257;22;20008;-53
2022/01/30 01:49:34;;;;;;;21.20;4.75;;;9.60;58.00;;;;;;6263270;22;19995;-53
2022/01/30 01:54:44;;;;;;;38.38;5.50;;;9.50;58.10;;;;;;6274841;22;20000;-52
2022/01/30 01:57:10;;;;;;;36.08;5.03;;;9.40;58.20;;;;;;6266266;22;20000;-54
2022/01/30 01:59:36;;;;;;;28.13;5.18;;;9.40;58.40;;;;;;6263429;22;20004;-57
2022/01/30 02:02:04;;;;;;;27.40;3.97;;;9.40;58.40;;;;;;6265625;22;20000;-56
2022/01/30 02:04:30;;;;;;;30.75;5.70;;;9.40;58.40;;;;;;6264513;22;20007;-51
2022/01/30 02:07:34;;;;;;;37.67;4.85;;;9.30;58.40;;;;;;6264592;22;20008;-57
2022/01/30 02:09:45;;;;;;;37.55;6.05;;;9.30;58.50;;;;;;6261794;22;20266;-50
2022/01/30 02:12:18;;;;;;;28.20;4.90;;;9.20;58.40;;;;;;6264783;22;19996;-54
2022/01/30 02:25:38;;;;;;;34.28;5.05;;;9.10;58.60;;;;;;6275651;22;20010;-58
2022/01/30 02:28:14;;;;;;;42.55;6.05;;;9.00;58.60;;;;;;6272238;22;20018;-59
2022/01/30 02:30:48;;;;;;;35.13;6.22;;;9.00;58.70;;;;;;6263845;22;20007;-53
2022/01/30 02:33:15;;;;;;;32.75;5.82;;;8.90;58.70;;;;;;6234404;22;20008;-53
2022/01/30 02:35:41;;;;;;;30.55;5.22;;;8.90;58.80;;;;;;6264039;22;20317;-54
2022/01/30 02:38:07;;;;;;;31.75;5.47;;;8.90;58.90;;;;;;6262423;22;20007;-52
2022/01/30 02:40:38;;;;;;;41.58;5.50;;;8.90;58.70;;;;;;6264353;22;20479;-54
2022/01/30 02:46:32;;;;;;;44.78;5.13;;;8.80;58.80;;;;;;6275379;22;20022;-50
2022/01/30 02:49:11;;;;;;;38.40;5.32;;;8.80;58.90;;;;;;6263841;22;20325;-55
2022/01/30 02:51:47;;;;;;;37.92;5.25;;;8.70;59.00;;;;;;6265005;22;20004;-50
2022/01/30 02:54:13;;;;;;;39.42;4.53;;;8.70;58.90;;;;;;6240129;22;20004;-53
2022/01/30 02:56:40;;;;;;;34.13;4.78;;;8.70;59.10;;;;;;6264319;22;19999;-55
2022/01/30 02:59:07;;;;;;;29.90;5.13;;;8.70;59.10;;;;;;6261149;22;20456;-53
2022/01/30 03:01:34;;;;;;;38.35;5.30;;;8.60;59.10;;;;;;6237966;22;20019;-56
2022/01/30 03:04:01;;;;;;;38.42;5.15;;;8.60;59.10;;;;;;6264157;22;20019;-54
2022/01/30 03:06:27;;;;;;;36.55;4.82;;;8.60;59.20;;;;;;6237475;22;20008;-54
2022/01/30 03:08:53;;;;;;;26.02;5.65;;;8.60;59.30;;;;;;6264418;22;20340;-56
2022/01/30 03:11:20;;;;;;;25.88;4.40;;;8.60;59.30;;;;;;6237651;22;20007;-54
2022/01/30 03:13:47;;;;;;;41.75;6.55;;;8.60;59.30;;;;;;6263578;22;20468;-54
2022/01/30 03:16:13;;;;;;;29.10;4.40;;;8.50;59.40;;;;;;6235772;22;20007;-58
2022/01/30 03:18:40;;;;;;;43.17;6.47;;;8.50;59.40;;;;;;6265347;22;19996;-58
2022/01/30 03:21:07;;;;;;;31.63;4.57;;;8.50;59.50;;;;;;6265286;22;19995;-57
2022/01/30 03:23:37;;;;;;;33.38;6.22;;;8.50;59.50;;;;;;6264259;22;19995;-59
2022/01/30 03:26:04;;;;;;;26.55;4.50;;;8.40;59.50;;;;;;6265014;22;20011;-59
2022/01/30 03:28:32;;;;;;;29.40;4.93;;;8.40;59.50;;;;;;6262736;22;20016;-56
2022/01/30 03:31:07;;;;;;;37.95;5.38;;;8.40;59.50;;;;;;6262914;22;20004;-59
2022/01/30 03:33:34;;;;;;;31.60;4.70;;;8.40;59.50;;;;;;6263806;22;20454;-59
2022/01/30 03:36:01;;;;;;;29.55;4.50;;;8.40;59.60;;;;;;6265255;22;20011;-58
2022/01/30 03:38:27;;;;;;;28.27;5.55;;;8.40;59.50;;;;;;6236836;22;20007;-54
2022/01/30 03:40:54;;;;;;;37.47;5.18;;;8.30;59.40;;;;;;6264796;22;20004;-58
2022/01/30 03:43:21;;;;;;;43.83;6.25;;;8.30;59.60;;;;;;6262884;22;19996;-54
2022/01/30 03:45:49;;;;;;;44.35;7.85;;;8.30;59.60;;;;;;6264390;22;20328;-57
2022/01/30 03:48:15;;;;;;;46.28;6.32;;;8.30;59.70;;;;;;6212375;22;20012;-58
2022/01/30 03:50:45;;;;;;;42.03;5.15;;;8.30;59.70;;;;;;6263567;22;20004;-59
2022/01/30 03:53:12;;;;;;;29.42;4.72;;;8.30;59.60;;;;;;6273812;22;20333;-59
2022/01/30 03:55:39;;;;;;;46.95;5.93;;;8.40;59.60;;;;;;6264966;22;19996;-59
2022/01/30 03:58:05;;;;;;;29.48;5.03;;;8.40;59.60;;;;;;6262351;22;20317;-59
2022/01/30 04:00:32;;;;;;;31.55;4.97;;;8.40;59.50;;;;;;6261847;22;20007;-56
2022/01/30 04:02:58;;;;;;;36.30;5.10;;;8.30;59.50;;;;;;6236920;22;20011;-58
2022/01/30 04:05:24;;;;;;;38.80;5.05;;;8.40;59.50;;;;;;6264994;22;20014;-59
2022/01/30 04:07:50;;;;;;;31.27;5.45;;;8.30;59.90;;;;;;6236645;22;20014;-58
2022/01/30 04:10:17;;;;;;;33.78;4.55;;;8.40;59.30;;;;;;6263481;22;19996;-58
2022/01/30 04:12:43;;;;;;;35.08;5.47;;;8.40;59.80;;;;;;6263378;22;20007;-57
2022/01/30 04:15:10;;;;;;;27.45;3.97;;;8.40;59.30;;;;;;6262198;22;20001;-59
2022/01/30 04:17:36;;;;;;;34.75;4.93;;;8.40;59.40;;;;;;6265504;22;20007;-57
2022/01/30 04:20:03;;;;;;;45.90;5.63;;;8.40;59.30;;;;;;6264903;22;20169;-58
2022/01/30 04:22:29;;;;;;;40.70;6.10;;;8.40;59.30;;;;;;6264678;22;20010;-59
2022/01/30 04:24:55;;;;;;;37.70;5.15;;;8.40;59.30;;;;;;6264245;22;19999;-59
2022/01/30 04:27:21;;;;;;;31.60;4.68;;;8.40;59.30;;;;;;6264146;22;20431;-57
2022/01/30 04:29:48;;;;;;;32.10;5.30;;;8.40;59.30;;;;;;6262907;22;19995;-58
2022/01/30 04:32:15;;;;;;;30.02;5.35;;;8.40;59.30;;;;;;6264404;22;20424;-56
2022/01/30 04:34:44;;;;;;;32.85;5.85;;;8.40;59.30;;;;;;6259544;22;19996;-57
2022/01/30 04:37:22;;;;;;;30.60;4.43;;;8.40;59.20;;;;;;6261776;22;20000;-58
2022/01/30 04:53:23;;;;;;;39.65;5.93;;;8.50;59.30;;;;;;6274779;22;19914;-59
2022/01/30 05:01:02;;;;;;;38.28;4.40;;;8.50;58.80;;;;;;6275594;22;20019;-58
2022/01/30 05:03:52;;;;;;;43.08;4.30;;;8.50;58.70;;;;;;6275813;22;19996;-55
2022/01/30 05:06:29;;;;;;;35.95;6.03;;;8.40;58.80;;;;;;6264309;22;20011;-59
2022/01/30 05:08:55;;;;;;;24.05;4.32;;;8.40;58.70;;;;;;6274704;22;20000;-59
2022/01/30 05:11:21;;;;;;;42.38;5.50;;;8.40;59.00;;;;;;6237006;22;20011;-59
2022/01/30 05:13:49;;;;;;;49.15;6.38;;;8.40;58.80;;;;;;6235596;22;20300;-58
2022/01/30 05:16:17;;;;;;;34.28;4.72;;;8.40;58.80;;;;;;6259147;22;19999;-59
2022/01/30 05:18:45;;;;;;;36.83;6.47;;;8.40;58.80;;;;;;6236161;22;20011;-59
2022/01/30 05:21:11;;;;;;;31.23;4.68;;;8.40;58.90;;;;;;6266177;22;20004;-58
2022/01/30 05:23:37;;;;;;;28.58;4.45;;;8.40;58.80;;;;;;6265541;22;19999;-59
2022/01/30 05:26:07;;;;;;;39.67;4.80;;;8.40;58.90;;;;;;6264890;22;20003;-58
2022/01/30 05:28:33;;;;;;;28.15;3.95;;;8.40;58.90;;;;;;6264307;22;19996;-59
2022/01/30 05:31:00;;;;;;;26.83;3.97;;;8.40;58.80;;;;;;6265504;22;20000;-52
2022/01/30 05:33:26;;;;;;;32.88;5.55;;;8.30;58.80;;;;;;6265226;22;20003;-57
2022/01/30 05:35:52;;;;;;;35.53;5.05;;;8.30;58.80;;;;;;6234550;22;20463;-58
2022/01/30 05:38:20;;;;;;;33.38;4.80;;;8.30;58.90;;;;;;6266041;22;20015;-57
2022/01/30 05:40:46;;;;;;;56.35;8.27;;;8.30;59.00;;;;;;6235005;22;20007;-56
2022/01/30 05:43:13;;;;;;;39.95;5.10;;;8.30;59.00;;;;;;6233418;22;20014;-59
2022/01/30 05:45:45;;;;;;;33.42;4.35;;;8.30;59.00;;;;;;6263208;22;20011;-59
2022/01/30 05:48:16;;;;;;;31.40;4.07;;;8.30;59.10;;;;;;6264821;22;20003;-57
2022/01/30 05:50:43;;;;;;;37.40;4.90;;;8.20;59.10;;;;;;6265363;22;20022;-55
2022/01/30 05:53:10;;;;;;;38.67;5.47;;;8.30;59.10;;;;;;6274688;22;20000;-56
2022/01/30 05:55:36;;;;;;;30.27;4.72;;;8.30;59.00;;;;;;6265597;22;20003;-56
2022/01/30 05:58:03;;;;;;;30.80;4.45;;;8.30;59.00;;;;;;6265695;22;20004;-57
2022/01/30 06:00:29;;;;;;;31.85;4.75;;;8.20;58.90;;;;;;6264244;22;20403;-57
2022/01/30 06:02:55;;;;;;;36.55;5.13;;;8.20;58.80;;;;;;6265360;22;19999;-59
2022/01/30 06:05:24;;;;;;;38.05;5.43;;;8.30;58.80;;;;;;6266489;22;20004;-57
2022/01/30 06:07:55;;;;;;;31.85;5.18;;;8.20;58.70;;;;;;6263342;22;20014;-58
2022/01/30 06:10:23;;;;;;;28.55;4.43;;;8.20;58.80;;;;;;6264107;22;20313;-59
2022/01/30 06:12:49;;;;;;;38.63;5.60;;;8.30;58.80;;;;;;6264958;22;19996;-59
2022/01/30 06:15:16;;;;;;;30.42;4.95;;;8.30;58.80;;;;;;6265102;22;20011;-59
2022/01/30 06:17:43;;;;;;;37.97;4.85;;;8.30;58.80;;;;;;6265717;22;20158;-56
2022/01/30 06:20:11;;;;;;;33.63;4.95;;;8.30;58.80;;;;;;6265903;22;20517;-59
2022/01/30 06:22:39;;;;;;;22.05;3.38;;;8.30;58.80;;;;;;6264734;22;20302;-57
2022/01/30 06:25:06;;;;;;;26.67;3.95;;;8.30;58.80;;;;;;6264953;22;20018;-59
2022/01/30 06:27:32;;;;;;;28.58;4.13;;;8.40;58.90;;;;;;6265311;22;19999;-59
2022/01/30 06:29:59;;;;;;;28.67;4.00;;;8.30;58.80;;;;;;6263127;22;20392;-58
2022/01/30 06:32:25;;;;;;;32.72;4.47;;;8.30;58.70;;;;;;6264704;22;20003;-59
2022/01/30 06:34:51;;;;;;;32.17;4.43;;;8.40;58.70;;;;;;6264254;22;20010;-59
2022/01/30 06:37:18;;;;;;;33.10;4.75;;;8.40;58.70;;;;;;6265666;22;20000;-59
2022/01/30 06:39:44;;;;;;;33.53;5.43;;;8.40;58.70;;;;;;6263403;22;19999;-56
2022/01/30 06:42:10;;;;;;;36.17;5.45;;;8.40;58.70;;;;;;6264822;22;19999;-55
2022/01/30 06:44:37;;;;;;;34.47;4.70;;;8.40;58.70;;;;;;6261976;22;19992;-56
2022/01/30 06:47:05;;;;;;;26.23;3.67;;;8.40;58.80;;;;;;6261337;22;20015;-57
2022/01/30 06:49:31;;;;;;;27.95;4.03;;;8.40;58.80;;;;;;6262986;22;20328;-55
2022/01/30 06:51:57;;;;;;;28.83;4.60;;;8.40;58.70;;;;;;6263182;22;20008;-53
2022/01/30 06:54:24;;;;;;;30.10;4.35;;;8.40;58.60;;;;;;6264056;22;20333;-55
2022/01/30 06:56:50;;;;;;;30.23;3.63;;;8.40;58.50;;;;;;6263354;22;19999;-55
2022/01/30 06:59:16;;;;;;;32.90;4.72;;;8.40;58.50;;;;;;6263906;22;20003;-55
2022/01/30 07:01:43;;;;;;;30.27;5.10;;;8.30;58.40;;;;;;6264300;22;20004;-51
2022/01/30 07:04:09;;;;;;;25.35;4.28;;;8.30;58.40;;;;;;6263802;22;20006;-54
2022/01/30 07:06:35;;;;;;;38.42;6.25;;;8.30;58.50;;;;;;6265138;22;20018;-56
2022/01/30 07:09:02;;;;;;;35.67;5.57;;;8.20;58.40;;;;;;6238100;22;20003;-57
2022/01/30 07:11:28;;;;;;;31.73;4.78;;;8.20;58.40;;;;;;6264774;22;20018;-54
2022/01/30 07:13:54;;;;;;;28.08;4.32;;;8.20;58.50;;;;;;6262925;22;20325;-51
2022/01/30 07:16:20;;;;;;;28.60;4.03;;;8.20;58.60;;;;;;6265282;22;20003;-54
2022/01/30 07:18:46;;;;;;;35.33;4.97;;;8.10;58.60;;;;;;6264947;22;20023;-51
2022/01/30 07:21:13;;;;;;;27.92;3.95;;;8.20;58.60;;;;;;6236483;22;20004;-48
2022/01/30 07:23:40;;;;;;;24.92;3.97;;;8.10;58.30;;;;;;6262834;22;20446;-55
2022/01/30 07:26:06;;;;;;;37.22;4.82;;;8.10;58.10;;;;;;6234611;22;19999;-56
2022/01/30 07:28:33;;;;;;;26.88;2.97;;;8.10;57.90;;;;;;6260401;22;20008;-52
2022/01/30 07:30:59;;;;;;;31.65;4.70;;;8.00;58.00;;;;;;6232323;22;20328;-51
2022/01/30 07:33:25;;;;;;;19.13;2.85;;;8.00;58.20;;;;;;6236172;22;19995;-52
2022/01/30 07:35:53;;;;;;;26.33;4.90;;;8.10;58.20;;;;;;6236129;22;20018;-54
2022/01/30 07:38:21;;;;;;;27.25;3.83;;;8.10;58.20;;;;;;6263728;22;19996;-54
2022/01/30 07:40:48;;;;;;;26.02;4.55;;;8.10;58.10;;;;;;6263402;22;20306;-53
2022/01/30 07:43:15;;;;;;;28.00;4.80;;;8.10;58.00;;;;;;6260486;22;20443;-53
2022/01/30 07:45:41;;;;;;;31.52;3.90;;;8.10;58.00;;;;;;6263432;22;20004;-55
2022/01/30 07:48:07;;;;;;;26.88;4.07;;;8.20;58.00;;;;;;6264988;22;20019;-59
2022/01/30 07:50:33;;;;;;;32.90;4.22;;;8.20;57.70;;;;;;6261458;22;20000;-59
2022/01/30 07:52:59;;;;;;;35.20;4.38;;;8.20;57.80;;;;;;6231713;23;20027;-59
2022/01/30 07:55:25;;;;;;;28.92;4.03;;;8.20;57.70;;;;;;6234180;23;20004;-58
2022/01/30 07:57:52;;;;;;;29.73;4.75;;;8.20;57.70;;;;;;6233830;23;19997;-55
2022/01/30 08:00:18;;;;;;;23.00;4.22;;;8.30;57.70;;;;;;6232147;23;20413;-59
2022/01/30 08:02:44;;;;;;;29.00;4.03;;;8.30;57.70;;;;;;6232088;22;20015;-59
2022/01/30 08:05:10;;;;;;;37.83;4.68;;;8.30;57.60;;;;;;6234691;23;19996;-56
2022/01/30 08:07:37;;;;;;;29.38;4.88;;;8.30;57.50;;;;;;6233809;23;20031;-57
2022/01/30 08:10:03;;;;;;;25.63;4.28;;;8.30;57.40;;;;;;6233001;23;20317;-59
2022/01/30 08:12:29;;;;;;;28.85;5.13;;;8.30;57.30;;;;;;6231910;23;20000;-58
2022/01/30 08:14:55;;;;;;;28.20;3.60;;;8.30;57.40;;;;;;6232389;23;20003;-59
2022/01/30 08:17:23;;;;;;;32.05;3.58;;;8.30;57.50;;;;;;6233055;23;20027;-57
2022/01/30 08:19:51;;;;;;;31.17;5.10;;;8.40;57.40;;;;;;6233616;23;19996;-59
2022/01/30 08:22:17;;;;;;;26.50;3.85;;;8.40;57.40;;;;;;6233754;23;19992;-57
2022/01/30 08:24:43;;;;;;;24.85;3.92;;;8.40;57.50;;;;;;6235262;23;19996;-59
2022/01/30 08:27:09;;;;;;;26.92;3.88;;;8.50;57.60;;;;;;6236580;23;20000;-59
2022/01/30 08:29:37;;;;;;;21.67;3.72;;;8.50;57.60;;;;;;6234008;23;20217;-57
2022/01/30 08:32:05;;;;;;;35.78;4.45;;;8.50;57.60;;;;;;6235147;22;20460;-59
2022/01/30 08:34:31;;;;;;;25.98;3.45;;;8.50;57.60;;;;;;6234660;23;20000;-59
2022/01/30 08:36:57;;;;;;;27.92;4.25;;;8.50;57.60;;;;;;6235404;23;20004;-58
2022/01/30 08:39:23;;;;;;;30.80;4.43;;;8.50;57.60;;;;;;6232134;23;20730;-57
2022/01/30 08:41:49;;;;;;;24.35;4.25;;;8.50;57.60;;;;;;6233108;23;20004;-59
2022/01/30 08:44:15;;;;;;;24.95;3.42;;;8.50;57.60;;;;;;6232594;23;20433;-58
2022/01/30 08:46:42;;;;;;;24.23;3.78;;;8.60;57.60;;;;;;6234184;23;20008;-59
2022/01/30 08:49:08;;;;;;;33.58;4.97;;;8.60;57.50;;;;;;6234593;23;20012;-58
2022/01/30 08:51:34;;;;;;;35.17;4.25;;;8.60;57.40;;;;;;6248596;22;20326;-59
2022/01/30 08:54:00;;;;;;;22.75;3.55;;;8.50;57.40;;;;;;6266052;22;20007;-59
2022/01/30 08:56:28;;;;;;;31.85;4.20;;;8.60;57.50;;;;;;6266714;22;20003;-59
2022/01/30 08:58:54;;;;;;;34.13;5.00;;;8.60;57.50;;;;;;6264587;22;19996;-55
2022/01/30 09:01:21;;;;;;;24.77;3.88;;;8.60;57.50;;;;;;6266543;22;19992;-59
2022/01/30 09:03:47;;;;;;;22.55;4.03;;;8.60;57.30;;;;;;6236274;22;20446;-59
2022/01/30 09:06:13;;;;;;;25.15;4.30;;;8.60;57.40;;;;;;6266789;22;19996;-57
2022/01/30 09:08:39;;;;;;;21.98;3.65;;;8.60;57.30;;;;;;6266447;22;19995;-59
2022/01/30 09:11:05;;;;;;;25.08;4.55;;;8.60;57.50;;;;;;6266441;22;20432;-59
2022/01/30 09:13:32;;;;;;;29.83;4.60;;;8.60;57.70;;;;;;6237052;22;20000;-59
2022/01/30 09:15:59;;;;;;;21.58;3.55;;;8.60;57.60;;;;;;6238464;22;20003;-59
2022/01/30 09:18:26;;;;;;;33.05;4.07;;;8.60;57.60;;;;;;6266158;22;20006;-59
2022/01/30 09:20:54;;;;;;;29.58;3.88;;;8.60;58.00;;;;;;6238874;22;19999;-59
2022/01/30 09:23:20;;;;;;;24.67;4.05;;;8.60;57.60;;;;;;6264199;22;20000;-59
2022/01/30 09:25:47;;;;;;;33.78;6.60;;;8.70;57.60;;;;;;6266179;22;20000;-59
2022/01/30 09:28:13;;;;;;;26.00;3.90;;;8.70;57.50;;;;;;6265184;22;20004;-60
2022/01/30 09:30:39;;;;;;;23.00;4.93;;;8.70;57.50;;;;;;6238004;22;20014;-57
2022/01/30 09:33:06;;;;;;;24.42;3.90;;;8.60;57.20;;;;;;6237730;22;20328;-58
2022/01/30 09:35:32;;;;;;;27.27;4.50;;;8.70;57.20;;;;;;6238946;22;20004;-55
2022/01/30 09:37:58;;;;;;;23.13;4.45;;;8.60;57.00;;;;;;6266485;22;20003;-54
2022/01/30 09:40:24;;;;;;;25.52;4.20;;;8.60;57.20;;;;;;6266634;22;20648;-56
2022/01/30 09:42:52;;;;;;;28.15;4.28;;;8.60;57.30;;;;;;6264047;22;20332;-58
2022/01/30 09:45:20;;;;;;;24.33;3.90;;;8.60;57.20;;;;;;6263340;22;20011;-59
2022/01/30 09:47:48;;;;;;;27.08;4.13;;;8.60;57.30;;;;;;6265490;22;20003;-59
2022/01/30 09:50:17;;;;;;;29.63;4.25;;;8.70;57.30;;;;;;6265599;22;20010;-56
2022/01/30 09:52:44;;;;;;;34.70;4.30;;;8.70;57.20;;;;;;6264905;22;20015;-57
2022/01/30 09:55:11;;;;;;;31.52;3.80;;;8.80;57.10;;;;;;6265201;22;20003;-59
2022/01/30 09:57:39;;;;;;;31.42;4.38;;;8.80;57.20;;;;;;6266299;22;20431;-58
2022/01/30 10:00:07;;;;;;;33.20;5.20;;;8.80;57.20;;;;;;6263671;22;20007;-56
2022/01/30 10:02:34;;;;;;;32.97;5.35;;;8.90;57.00;;;;;;6264608;22;20003;-57
2022/01/30 10:05:00;;;;;;;29.75;4.13;;;8.90;56.90;;;;;;6265405;22;20008;-57
2022/01/30 10:07:45;;;;;;;33.75;4.75;;;9.00;56.90;;;;;;6266542;22;20282;-55
2022/01/30 10:10:16;;;;;;;22.65;4.35;;;9.00;56.80;;;;;;6275980;22;19996;-55
2022/01/30 10:13:01;;;;;;;29.73;4.90;;;9.00;56.80;;;;;;6237868;22;20003;-54
2022/01/30 10:15:28;;;;;;;32.92;4.07;;;9.00;56.20;;;;;;6264176;22;20010;-59
2022/01/30 10:17:54;;;;;;;30.92;5.65;;;9.10;56.20;;;;;;6266112;22;20081;-57
2022/01/30 10:20:25;;;;;;;29.17;4.95;;;9.10;55.90;;;;;;6238403;22;20451;-58
2022/01/30 10:23:04;;;;;;;29.10;3.85;;;9.00;55.80;;;;;;6275592;22;20007;-53
2022/01/30 10:25:35;;;;;;;35.45;5.30;;;9.00;55.70;;;;;;6265273;22;20325;-55
2022/01/30 10:28:10;;;;;;;29.02;4.50;;;9.00;56.10;;;;;;6264357;22;20007;-53
2022/01/30 10:30:48;;;;;;;28.92;5.05;;;9.00;56.20;;;;;;6275432;22;20015;-58
2022/01/30 10:33:16;;;;;;;26.73;4.25;;;9.10;56.20;;;;;;6250081;22;20007;-57
2022/01/30 10:35:51;;;;;;;22.17;3.67;;;9.10;56.20;;;;;;6263913;22;19995;-59
2022/01/30 10:38:33;;;;;;;33.85;5.15;;;9.20;56.10;;;;;;6264244;22;20015;-58
2022/01/30 10:41:13;;;;;;;35.28;4.63;;;9.20;55.90;;;;;;6265589;22;20004;-58
2022/01/30 10:44:04;;;;;;;31.70;4.88;;;9.20;55.50;;;;;;6271764;22;20435;-56
2022/01/30 10:46:40;;;;;;;37.60;4.90;;;9.30;55.10;;;;;;6275328;22;20010;-56
2022/01/30 10:49:19;;;;;;;30.75;4.97;;;9.30;54.70;;;;;;6275850;22;20436;-57
2022/01/30 10:52:13;;;;;;;20.50;3.92;;;9.30;54.90;;;;;;6264641;22;20019;-56
2022/01/30 10:54:40;;;;;;;31.37;5.17;;;9.30;54.80;;;;;;6261372;22;20336;-54
2022/01/30 10:57:11;;;;;;;28.08;5.00;;;9.40;55.10;;;;;;6265778;22;20011;-56
2022/01/30 10:59:42;;;;;;;41.63;5.00;;;9.40;54.80;;;;;;6263107;22;20011;-57
2022/01/30 11:02:17;;;;;;;30.85;4.10;;;9.40;54.30;;;;;;6274914;22;20332;-56
2022/01/30 11:04:45;;;;;;;32.05;4.63;;;9.40;54.00;;;;;;6263422;22;20010;-54
2022/01/30 11:07:15;;;;;;;30.52;4.57;;;9.40;54.00;;;;;;6237917;22;20000;-54
2022/01/30 11:10:05;;;;;;;30.67;5.82;;;9.40;53.90;;;;;;6264390;22;20340;-55
2022/01/30 11:12:43;;;;;;;26.48;4.80;;;9.50;53.90;;;;;;6273675;22;19992;-57
2022/01/30 11:15:34;;;;;;;37.60;4.75;;;9.50;54.00;;;;;;6249906;22;19995;-53
2022/01/30 11:18:03;;;;;;;36.33;4.90;;;9.50;53.60;;;;;;6264960;22;20007;-57
2022/01/30 11:20:32;;;;;;;33.53;4.60;;;9.50;53.20;;;;;;6265246;22;20002;-55
2022/01/30 11:23:03;;;;;;;26.23;4.22;;;9.50;52.60;;;;;;6263726;22;19996;-53
2022/01/30 11:25:35;;;;;;;33.08;6.15;;;9.60;53.00;;;;;;6274737;22;19996;-51
2022/01/30 11:28:04;;;;;;;52.95;5.95;;;9.60;53.10;;;;;;6264447;22;20000;-56
2022/01/30 11:30:34;;;;;;;32.75;4.75;;;9.60;52.50;;;;;;6264247;22;19991;-59
2022/01/30 11:33:00;;;;;;;35.35;5.28;;;9.60;51.90;;;;;;6264843;22;20007;-58
2022/01/30 11:35:27;;;;;;;23.05;4.07;;;9.60;51.30;;;;;;6265457;22;20003;-58
2022/01/30 11:37:54;;;;;;;36.67;5.18;;;9.60;51.40;;;;;;6265425;22;20018;-59
2022/01/30 11:40:21;;;;;;;34.08;5.13;;;9.60;51.50;;;;;;6264216;22;20286;-53
2022/01/30 11:42:49;;;;;;;35.42;5.78;;;9.60;51.00;;;;;;6234481;22;20003;-53
2022/01/30 11:45:20;;;;;;;46.97;5.55;;;9.60;50.80;;;;;;6262661;22;19996;-54
2022/01/30 11:47:55;;;;;;;32.90;5.05;;;9.50;50.60;;;;;;6264439;22;19991;-54
2022/01/30 11:50:29;;;;;;;34.58;5.20;;;9.50;50.80;;;;;;6264139;22;20011;-50
2022/01/30 11:53:14;;;;;;;39.85;4.75;;;9.50;50.90;;;;;;6262658;22;20340;-52
2022/01/30 11:55:54;;;;;;;31.80;5.95;;;9.50;51.20;;;;;;6264626;22;20000;-57
2022/01/30 11:58:34;;;;;;;36.55;5.03;;;9.50;51.30;;;;;;6237919;22;20310;-58
2022/01/30 12:01:22;;;;;;;36.90;6.28;;;9.50;51.00;;;;;;6267576;22;20320;-58
2022/01/30 12:03:59;;;;;;;46.58;5.60;;;9.50;50.90;;;;;;6244839;22;20000;-49
2022/01/30 12:06:25;;;;;;;40.67;5.68;;;9.40;50.40;;;;;;6274739;22;19995;-57
2022/01/30 12:08:53;;;;;;;40.78;5.50;;;9.50;51.00;;;;;;6262911;22;20011;-56
2022/01/30 12:11:35;;;;;;;34.60;5.50;;;9.40;50.80;;;;;;6262731;22;20007;-59
2022/01/30 12:14:02;;;;;;;38.40;4.90;;;9.40;50.20;;;;;;6262358;22;20023;-58
2022/01/30 12:16:44;;;;;;;50.70;7.43;;;9.40;50.70;;;;;;6265911;22;20317;-58
2022/01/30 12:19:13;;;;;;;30.05;5.20;;;9.40;49.90;;;;;;6263665;22;20014;-55
2022/01/30 12:21:40;;;;;;;38.00;6.25;;;9.40;50.00;;;;;;6264639;22;20003;-57
2022/01/30 12:24:32;;;;;;;36.95;5.57;;;9.40;49.90;;;;;;6262912;22;20011;-57
2022/01/30 12:27:02;;;;;;;44.13;6.88;;;9.40;49.80;;;;;;6259832;22;20447;-57
2022/01/30 12:29:45;;;;;;;35.92;5.43;;;9.40;49.90;;;;;;6264904;22;20006;-49
2022/01/30 12:32:20;;;;;;;36.05;6.05;;;9.40;49.40;;;;;;6265325;22;20008;-56
2022/01/30 12:34:55;;;;;;;31.35;5.53;;;9.40;49.30;;;;;;6263302;22;20003;-56
2022/01/30 12:37:21;;;;;;;34.95;5.43;;;9.40;49.20;;;;;;6264568;22;20015;-59
2022/01/30 12:39:48;;;;;;;39.25;6.35;;;9.50;49.50;;;;;;6264661;22;20332;-59
2022/01/30 12:42:15;;;;;;;30.67;5.00;;;9.50;49.50;;;;;;6239060;22;20003;-59
2022/01/30 12:44:42;;;;;;;40.05;6.18;;;9.60;49.20;;;;;;6234304;22;20246;-55
2022/01/30 12:47:08;;;;;;;42.58;6.13;;;9.50;48.70;;;;;;6265642;22;20003;-57
2022/01/30 12:49:52;;;;;;;37.00;6.53;;;9.60;48.60;;;;;;6266320;22;20000;-59
2022/01/30 12:54:50;;;;;;;39.88;5.78;;;9.60;48.90;;;;;;6264271;22;20004;-48
2022/01/30 12:57:20;;;;;;;47.25;6.63;;;9.60;48.50;;;;;;6266469;22;19996;-55
2022/01/30 12:59:57;;;;;;;36.97;6.63;;;9.60;48.60;;;;;;6264119;22;20011;-57
2022/01/30 13:02:26;;;;;;;33.97;5.63;;;9.60;48.80;;;;;;6264303;22;20011;-56
2022/01/30 13:05:04;;;;;;;40.85;5.95;;;9.60;48.90;;;;;;6265957;22;20432;-54
2022/01/30 13:07:30;;;;;;;34.17;5.85;;;9.60;49.20;;;;;;6276020;22;20326;-52
2022/01/30 13:10:12;;;;;;;43.78;6.07;;;9.60;49.20;;;;;;6265460;22;20425;-55
2022/01/30 13:12:43;;;;;;;33.30;6.45;;;9.70;49.10;;;;;;6275755;22;20051;-59
2022/01/30 13:15:14;;;;;;;47.97;5.68;;;9.70;49.40;;;;;;6263730;22;20004;-56
2022/01/30 13:17:42;;;;;;;41.13;6.00;;;9.70;48.70;;;;;;6266008;22;20002;-57
2022/01/30 13:20:12;;;;;;;29.95;5.25;;;9.60;48.80;;;;;;6264517;22;20000;-59
2022/01/30 13:22:43;;;;;;;33.30;6.00;;;9.70;49.20;;;;;;6263593;22;20459;-57
2022/01/30 13:25:13;;;;;;;32.83;6.32;;;9.70;49.30;;;;;;6263665;22;20008;-59
2022/01/30 13:27:41;;;;;;;34.15;5.57;;;9.70;49.10;;;;;;6264473;22;20007;-56
2022/01/30 13:30:09;;;;;;;31.05;4.85;;;9.80;48.80;;;;;;6262120;22;20015;-58
2022/01/30 13:32:39;;;;;;;43.00;5.43;;;9.80;49.10;;;;;;6264406;22;19999;-59
2022/01/30 13:35:19;;;;;;;42.97;6.22;;;9.80;49.60;;;;;;6265468;22;20213;-58
2022/01/30 13:37:46;;;;;;;34.22;5.18;;;9.80;48.80;;;;;;6264116;22;20007;-57
2022/01/30 13:40:25;;;;;;;37.72;4.78;;;9.90;48.90;;;;;;6265282;22;20000;-59
2022/01/30 13:48:10;;;;;;;35.10;6.03;;;9.80;48.00;;;;;;6273818;22;20015;-59
2022/01/30 13:50:44;;;;;;;28.55;4.53;;;9.80;47.70;;;;;;6272469;22;20003;-59
2022/01/30 13:53:14;;;;;;;26.42;5.72;;;9.80;47.90;;;;;;6275227;22;20006;-55